Terminal Aerodrome Forecast
Issued by NWS

Home | Current Version | Previous Version | Text Only | Print | Product List | Glossary On
Versions: 1 2 3 4 5 6 7 8 9 10 11 12 13 14 15
000
FTUS43 KLSX 020300 AAA
TAFSUS
TAF AMD
KSUS 020313Z 0203/0224 16009KT P6SM BKN080 WS018/18045KT
      TEMPO 0203/0205 -RA
     FM021400 21013G23KT 6SM -SHRA VCTS OVC040CB
     FM021700 22014G24KT P6SM SCT040 BKN120
     FM022100 23012G20KT P6SM VCTS BKN040CB=

USA.gov is the U.S. government's official web portal to all federal, state and local government web resources and services.